sensor_id;sensor_type;location;lat;lon;timestamp;pressure;altitude;pressure_sealevel;temperature;humidity
24746;BME280;12845;52.042;6.838;2023-04-15T00:01:28;-18233.16;;;7.62;100.00
24746;BME280;12845;52.042;6.838;2023-04-15T00:03:54;-18234.81;;;7.68;100.00
24746;BME280;12845;52.042;6.838;2023-04-15T00:06:22;-18235.09;;;7.69;100.00
24746;BME280;12845;52.042;6.838;2023-04-15T00:08:48;-18233.44;;;7.63;100.00
24746;BME280;12845;52.042;6.838;2023-04-15T00:11:17;-18234.00;;;7.65;100.00
24746;BME280;12845;52.042;6.838;2023-04-15T00:13:42;-18233.03;;;7.61;100.00
24746;BME280;12845;52.042;6.838;2023-04-15T00:16:08;-18230.41;;;7.52;100.00
24746;BME280;12845;52.042;6.838;2023-04-15T00:18:34;-18230.97;;;7.54;100.00
24746;BME280;12845;52.042;6.838;2023-04-15T00:21:00;-18231.53;;;7.56;100.00
24746;BME280;12845;52.042;6.838;2023-04-15T00:23:26;-18229.88;;;7.50;100.00
24746;BME280;12845;52.042;6.838;2023-04-15T00:25:52;-18229.72;;;7.49;100.00
24746;BME280;12845;52.042;6.838;2023-04-15T00:28:17;-18229.03;;;7.46;100.00
24746;BME280;12845;52.042;6.838;2023-04-15T00:30:43;-18227.13;;;7.39;100.00
24746;BME280;12845;52.042;6.838;2023-04-15T00:33:09;-18225.72;;;7.34;100.00
24746;BME280;12845;52.042;6.838;2023-04-15T00:35:35;-18225.31;;;7.33;100.00
24746;BME280;12845;52.042;6.838;2023-04-15T00:38:02;-18226.28;;;7.36;100.00
24746;BME280;12845;52.042;6.838;2023-04-15T00:40:27;-18227.38;;;7.40;100.00
24746;BME280;12845;52.042;6.838;2023-04-15T00:42:52;-18225.47;;;7.33;100.00
24746;BME280;12845;52.042;6.838;2023-04-15T00:45:18;-18224.09;;;7.28;100.00
24746;BME280;12845;52.042;6.838;2023-04-15T00:47:44;-18225.47;;;7.33;100.00
24746;BME280;12845;52.042;6.838;2023-04-15T00:50:11;-18224.63;;;7.30;100.00
24746;BME280;12845;52.042;6.838;2023-04-15T00:52:37;-18223.94;;;7.28;100.00
24746;BME280;12845;52.042;6.838;2023-04-15T00:55:03;-18224.34;;;7.29;100.00
24746;BME280;12845;52.042;6.838;2023-04-15T00:57:29;-18223.41;;;7.26;100.00
24746;BME280;12845;52.042;6.838;2023-04-15T00:59:56;-18222.44;;;7.22;100.00
24746;BME280;12845;52.042;6.838;2023-04-15T01:02:22;-18222.28;;;7.21;100.00
24746;BME280;12845;52.042;6.838;2023-04-15T01:04:48;-18221.31;;;7.18;100.00
24746;BME280;12845;52.042;6.838;2023-04-15T01:07:13;-18220.78;;;7.16;100.00
24746;BME280;12845;52.042;6.838;2023-04-15T01:09:39;-18220.78;;;7.16;100.00
24746;BME280;12845;52.042;6.838;2023-04-15T01:12:06;-18222.84;;;7.23;100.00
24746;BME280;12845;52.042;6.838;2023-04-15T01:14:33;-18224.34;;;7.29;100.00
24746;BME280;12845;52.042;6.838;2023-04-15T01:16:58;-18223.81;;;7.27;100.00
24746;BME280;12845;52.042;6.838;2023-04-15T01:19:23;-18222.97;;;7.24;100.00
24746;BME280;12845;52.042;6.838;2023-04-15T01:21:49;-18222.69;;;7.23;100.00
24746;BME280;12845;52.042;6.838;2023-04-15T01:24:17;-18219.66;;;7.12;100.00
24746;BME280;12845;52.042;6.838;2023-04-15T01:26:42;-18218.28;;;7.07;100.00
24746;BME280;12845;52.042;6.838;2023-04-15T01:29:08;-18218.84;;;7.09;100.00
24746;BME280;12845;52.042;6.838;2023-04-15T01:31:33;-18218.16;;;7.06;100.00
24746;BME280;12845;52.042;6.838;2023-04-15T01:33:59;-18217.19;;;7.03;100.00
24746;BME280;12845;52.042;6.838;2023-04-15T01:36:24;-18216.38;;;6.99;100.00
24746;BME280;12845;52.042;6.838;2023-04-15T01:38:50;-18215.13;;;6.95;100.00
24746;BME280;12845;52.042;6.838;2023-04-15T01:41:16;-18215.81;;;6.97;100.00
24746;BME280;12845;52.042;6.838;2023-04-15T01:43:41;-18215.13;;;6.95;100.00
24746;BME280;12845;52.042;6.838;2023-04-15T01:46:06;-18214.16;;;6.91;100.00
24746;BME280;12845;52.042;6.838;2023-04-15T01:48:32;-18213.06;;;6.87;100.00
24746;BME280;12845;52.042;6.838;2023-04-15T01:50:58;-18211.53;;;6.82;100.00
24746;BME280;12845;52.042;6.838;2023-04-15T01:53:24;-18211.13;;;6.80;100.00
24746;BME280;12845;52.042;6.838;2023-04-15T01:55:50;-18210.56;;;6.78;100.00
24746;BME280;12845;52.042;6.838;2023-04-15T01:58:16;-18210.03;;;6.76;100.00
24746;BME280;12845;52.042;6.838;2023-04-15T02:00:42;-18207.41;;;6.66;100.00
24746;BME280;12845;52.042;6.838;2023-04-15T02:03:08;-18205.63;;;6.60;100.00
24746;BME280;12845;52.042;6.838;2023-04-15T02:05:34;-18204.78;;;6.57;100.00
24746;BME280;12845;52.042;6.838;2023-04-15T02:07:59;-18205.06;;;6.58;100.00
24746;BME280;12845;52.042;6.838;2023-04-15T02:10:24;-18204.78;;;6.57;100.00
24746;BME280;12845;52.042;6.838;2023-04-15T02:12:50;-18204.66;;;6.56;100.00
24746;BME280;12845;52.042;6.838;2023-04-15T02:15:15;-18203.81;;;6.53;100.00
24746;BME280;12845;52.042;6.838;2023-04-15T02:17:41;-18205.34;;;6.59;100.00
24746;BME280;12845;52.042;6.838;2023-04-15T02:20:10;-18205.06;;;6.58;100.00
24746;BME280;12845;52.042;6.838;2023-04-15T02:22:36;-18203.00;;;6.50;100.00
24746;BME280;12845;52.042;6.838;2023-04-15T02:25:01;-18202.31;;;6.47;100.00
24746;BME280;12845;52.042;6.838;2023-04-15T02:27:27;-18201.47;;;6.44;100.00
24746;BME280;12845;52.042;6.838;2023-04-15T02:29:53;-18200.09;;;6.39;100.00
24746;BME280;12845;52.042;6.838;2023-04-15T02:32:18;-18200.94;;;6.42;100.00
24746;BME280;12845;52.042;6.838;2023-04-15T02:34:44;-18198.59;;;6.33;100.00
24746;BME280;12845;52.042;6.838;2023-04-15T02:37:11;-18196.78;;;6.27;100.00
24746;BME280;12845;52.042;6.838;2023-04-15T02:39:37;-18197.06;;;6.28;100.00
24746;BME280;12845;52.042;6.838;2023-04-15T02:42:03;-18196.66;;;6.26;100.00
24746;BME280;12845;52.042;6.838;2023-04-15T02:44:30;-18194.03;;;6.17;100.00
24746;BME280;12845;52.042;6.838;2023-04-15T02:46:57;-18194.03;;;6.17;100.00
24746;BME280;12845;52.042;6.838;2023-04-15T02:49:23;-18192.25;;;6.10;100.00
24746;BME280;12845;52.042;6.838;2023-04-15T02:51:48;-18192.09;;;6.09;100.00
24746;BME280;12845;52.042;6.838;2023-04-15T02:54:21;-18191.28;;;6.06;100.00
24746;BME280;12845;52.042;6.838;2023-04-15T02:56:50;-18192.25;;;6.10;100.00
24746;BME280;12845;52.042;6.838;2023-04-15T02:59:16;-18191.13;;;6.06;100.00
24746;BME280;12845;52.042;6.838;2023-04-15T03:01:41;-18191.28;;;6.06;100.00
24746;BME280;12845;52.042;6.838;2023-04-15T03:04:07;-18192.09;;;6.09;100.00
24746;BME280;12845;52.042;6.838;2023-04-15T03:06:33;-18192.78;;;6.12;100.00
24746;BME280;12845;52.042;6.838;2023-04-15T03:08:59;-18192.38;;;6.10;100.00
24746;BME280;12845;52.042;6.838;2023-04-15T03:11:25;-18191.81;;;6.08;100.00
24746;BME280;12845;52.042;6.838;2023-04-15T03:13:51;-18190.31;;;6.03;100.00
24746;BME280;12845;52.042;6.838;2023-04-15T03:16:17;-18190.16;;;6.02;100.00
24746;BME280;12845;52.042;6.838;2023-04-15T03:18:42;-18189.63;;;6.00;100.00
24746;BME280;12845;52.042;6.838;2023-04-15T03:21:07;-18187.69;;;5.93;100.00
24746;BME280;12845;52.042;6.838;2023-04-15T03:23:33;-18186.84;;;5.90;100.00
24746;BME280;12845;52.042;6.838;2023-04-15T03:26:01;-18186.03;;;5.87;100.00
24746;BME280;12845;52.042;6.838;2023-04-15T03:28:26;-18185.75;;;5.86;100.00
24746;BME280;12845;52.042;6.838;2023-04-15T03:30:53;-18184.91;;;5.83;100.00
24746;BME280;12845;52.042;6.838;2023-04-15T03:33:19;-18184.22;;;5.80;100.00
24746;BME280;12845;52.042;6.838;2023-04-15T03:35:44;-18184.38;;;5.81;100.00
24746;BME280;12845;52.042;6.838;2023-04-15T03:38:10;-18184.09;;;5.80;100.00
24746;BME280;12845;52.042;6.838;2023-04-15T03:40:35;-18183.25;;;5.77;100.00
24746;BME280;12845;52.042;6.838;2023-04-15T03:43:00;-18180.78;;;5.68;100.00
24746;BME280;12845;52.042;6.838;2023-04-15T03:45:26;-18179.25;;;5.62;100.00
24746;BME280;12845;52.042;6.838;2023-04-15T03:47:51;-18178.84;;;5.60;100.00
24746;BME280;12845;52.042;6.838;2023-04-15T03:50:17;-18178.84;;;5.60;100.00
24746;BME280;12845;52.042;6.838;2023-04-15T03:52:43;-18177.88;;;5.57;100.00
24746;BME280;12845;52.042;6.838;2023-04-15T03:55:08;-18176.38;;;5.51;100.00
24746;BME280;12845;52.042;6.838;2023-04-15T03:57:34;-18175.53;;;5.48;100.00
24746;BME280;12845;52.042;6.838;2023-04-15T04:00:04;-18175.00;;;5.46;100.00
24746;BME280;12845;52.042;6.838;2023-04-15T04:02:30;-18174.16;;;5.43;100.00
24746;BME280;12845;52.042;6.838;2023-04-15T04:04:55;-18172.63;;;5.37;100.00
24746;BME280;12845;52.042;6.838;2023-04-15T04:07:22;-18173.19;;;5.39;100.00
24746;BME280;12845;52.042;6.838;2023-04-15T04:09:48;-18173.06;;;5.39;100.00
24746;BME280;12845;52.042;6.838;2023-04-15T04:12:13;-18171.41;;;5.33;100.00
24746;BME280;12845;52.042;6.838;2023-04-15T04:14:38;-18169.47;;;5.26;100.00
24746;BME280;12845;52.042;6.838;2023-04-15T04:17:04;-18168.91;;;5.24;100.00
24746;BME280;12845;52.042;6.838;2023-04-15T04:19:29;-18168.91;;;5.24;100.00
24746;BME280;12845;52.042;6.838;2023-04-15T04:21:55;-18170.03;;;5.28;100.00
24746;BME280;12845;52.042;6.838;2023-04-15T04:24:20;-18171.13;;;5.32;100.00
24746;BME280;12845;52.042;6.838;2023-04-15T04:26:46;-18172.63;;;5.37;100.00
24746;BME280;12845;52.042;6.838;2023-04-15T04:29:11;-18170.28;;;5.29;100.00
24746;BME280;12845;52.042;6.838;2023-04-15T04:31:36;-18168.22;;;5.21;100.00
24746;BME280;12845;52.042;6.838;2023-04-15T04:34:02;-18168.91;;;5.24;100.00
24746;BME280;12845;52.042;6.838;2023-04-15T04:36:27;-18168.63;;;5.23;100.00
24746;BME280;12845;52.042;6.838;2023-04-15T04:38:53;-18169.06;;;5.24;100.00
24746;BME280;12845;52.042;6.838;2023-04-15T04:41:18;-18169.19;;;5.25;100.00
24746;BME280;12845;52.042;6.838;2023-04-15T04:43:43;-18168.38;;;5.22;100.00
24746;BME280;12845;52.042;6.838;2023-04-15T04:46:08;-18168.91;;;5.24;100.00
24746;BME280;12845;52.042;6.838;2023-04-15T04:48:34;-18169.59;;;5.26;100.00
24746;BME280;12845;52.042;6.838;2023-04-15T04:51:00;-18168.63;;;5.23;100.00
24746;BME280;12845;52.042;6.838;2023-04-15T04:53:26;-18168.91;;;5.24;100.00
24746;BME280;12845;52.042;6.838;2023-04-15T04:55:52;-18168.78;;;5.23;100.00
24746;BME280;12845;52.042;6.838;2023-04-15T04:58:17;-18167.53;;;5.18;100.00
24746;BME280;12845;52.042;6.838;2023-04-15T05:00:42;-18165.06;;;5.09;100.00
24746;BME280;12845;52.042;6.838;2023-04-15T05:03:08;-18164.22;;;5.06;100.00
24746;BME280;12845;52.042;6.838;2023-04-15T05:05:33;-18165.06;;;5.09;100.00
24746;BME280;12845;52.042;6.838;2023-04-15T05:08:01;-18165.88;;;5.12;100.00
24746;BME280;12845;52.042;6.838;2023-04-15T05:10:26;-18166.84;;;5.16;100.00
24746;BME280;12845;52.042;6.838;2023-04-15T05:12:51;-18166.72;;;5.15;100.00
24746;BME280;12845;52.042;6.838;2023-04-15T05:15:17;-18167.41;;;5.18;100.00
24746;BME280;12845;52.042;6.838;2023-04-15T05:17:42;-18166.97;;;5.16;100.00
24746;BME280;12845;52.042;6.838;2023-04-15T05:20:09;-18166.97;;;5.16;100.00
24746;BME280;12845;52.042;6.838;2023-04-15T05:22:34;-18168.38;;;5.22;100.00
24746;BME280;12845;52.042;6.838;2023-04-15T05:25:00;-18167.53;;;5.18;100.00
24746;BME280;12845;52.042;6.838;2023-04-15T05:27:25;-18169.47;;;5.26;100.00
24746;BME280;12845;52.042;6.838;2023-04-15T05:29:50;-18171.25;;;5.32;100.00
24746;BME280;12845;52.042;6.838;2023-04-15T05:32:16;-18171.94;;;5.35;100.00
24746;BME280;12845;52.042;6.838;2023-04-15T05:34:41;-18171.94;;;5.35;100.00
24746;BME280;12845;52.042;6.838;2023-04-15T05:37:07;-18172.78;;;5.38;100.00
24746;BME280;12845;52.042;6.838;2023-04-15T05:39:32;-18173.34;;;5.40;100.00
24746;BME280;12845;52.042;6.838;2023-04-15T05:41:58;-18173.63;;;5.41;100.00
24746;BME280;12845;52.042;6.838;2023-04-15T05:44:24;-18174.56;;;5.45;100.00
24746;BME280;12845;52.042;6.838;2023-04-15T05:46:50;-18176.38;;;5.51;100.00
24746;BME280;12845;52.042;6.838;2023-04-15T05:49:15;-18177.47;;;5.55;100.00
24746;BME280;12845;52.042;6.838;2023-04-15T05:51:40;-18179.13;;;5.61;100.00
24746;BME280;12845;52.042;6.838;2023-04-15T05:54:06;-18181.19;;;5.69;100.00
24746;BME280;12845;52.042;6.838;2023-04-15T05:56:31;-18181.75;;;5.71;100.00
24746;BME280;12845;52.042;6.838;2023-04-15T05:58:57;-18182.16;;;5.73;100.00
24746;BME280;12845;52.042;6.838;2023-04-15T06:01:22;-18183.25;;;5.77;100.00
24746;BME280;12845;52.042;6.838;2023-04-15T06:03:48;-18183.53;;;5.78;100.00
24746;BME280;12845;52.042;6.838;2023-04-15T06:06:13;-18184.09;;;5.80;100.00
24746;BME280;12845;52.042;6.838;2023-04-15T06:08:39;-18185.19;;;5.84;100.00
24746;BME280;12845;52.042;6.838;2023-04-15T06:11:05;-18186.44;;;5.88;100.00
24746;BME280;12845;52.042;6.838;2023-04-15T06:13:30;-18188.09;;;5.95;100.00
24746;BME280;12845;52.042;6.838;2023-04-15T06:15:56;-18190.03;;;6.02;100.00
24746;BME280;12845;52.042;6.838;2023-04-15T06:18:21;-18191.56;;;6.07;100.00
24746;BME280;12845;52.042;6.838;2023-04-15T06:20:46;-18193.63;;;6.15;100.00
24746;BME280;12845;52.042;6.838;2023-04-15T06:23:12;-18195.13;;;6.21;100.00
24746;BME280;12845;52.042;6.838;2023-04-15T06:25:37;-18196.94;;;6.27;100.00
24746;BME280;12845;52.042;6.838;2023-04-15T06:28:02;-18199.41;;;6.37;100.00
24746;BME280;12845;52.042;6.838;2023-04-15T06:30:28;-18202.03;;;6.46;100.00
24746;BME280;12845;52.042;6.838;2023-04-15T06:32:54;-18202.59;;;6.48;100.00
24746;BME280;12845;52.042;6.838;2023-04-15T06:35:20;-18204.78;;;6.57;100.00
24746;BME280;12845;52.042;6.838;2023-04-15T06:37:45;-18207.13;;;6.65;100.00
24746;BME280;12845;52.042;6.838;2023-04-15T06:40:11;-18208.22;;;6.69;100.00
24746;BME280;12845;52.042;6.838;2023-04-15T06:42:36;-18210.72;;;6.78;100.00
24746;BME280;12845;52.042;6.838;2023-04-15T06:45:02;-18212.22;;;6.84;100.00
24746;BME280;12845;52.042;6.838;2023-04-15T06:47:28;-18213.19;;;6.88;100.00
24746;BME280;12845;52.042;6.838;2023-04-15T06:49:53;-18213.47;;;6.89;100.00
24746;BME280;12845;52.042;6.838;2023-04-15T06:52:18;-18212.78;;;6.86;100.00
24746;BME280;12845;52.042;6.838;2023-04-15T06:54:44;-18213.88;;;6.90;100.00
24746;BME280;12845;52.042;6.838;2023-04-15T06:57:09;-18215.00;;;6.94;100.00
24746;BME280;12845;52.042;6.838;2023-04-15T06:59:35;-18216.78;;;7.01;100.00
24746;BME280;12845;52.042;6.838;2023-04-15T07:02:00;-18218.72;;;7.08;100.00
24746;BME280;12845;52.042;6.838;2023-04-15T07:04:26;-18218.56;;;7.08;100.00
24746;BME280;12845;52.042;6.838;2023-04-15T07:06:52;-18218.84;;;7.09;100.00
24746;BME280;12845;52.042;6.838;2023-04-15T07:09:20;-18220.50;;;7.15;100.00
24746;BME280;12845;52.042;6.838;2023-04-15T07:11:45;-18222.97;;;7.24;100.00
24746;BME280;12845;52.042;6.838;2023-04-15T07:14:10;-18224.22;;;7.29;100.00
24746;BME280;12845;52.042;6.838;2023-04-15T07:16:36;-18226.56;;;7.37;100.00
24746;BME280;12845;52.042;6.838;2023-04-15T07:19:01;-18228.63;;;7.45;100.00
24746;BME280;12845;52.042;6.838;2023-04-15T07:21:26;-18231.53;;;7.56;100.00
24746;BME280;12845;52.042;6.838;2023-04-15T07:23:52;-18234.41;;;7.66;100.00
24746;BME280;12845;52.042;6.838;2023-04-15T07:26:17;-18235.50;;;7.71;100.00
24746;BME280;12845;52.042;6.838;2023-04-15T07:28:42;-18238.13;;;7.80;100.00
24746;BME280;12845;52.042;6.838;2023-04-15T07:31:10;-18238.69;;;7.82;100.00
24746;BME280;12845;52.042;6.838;2023-04-15T07:33:36;-18241.16;;;7.91;100.00
24746;BME280;12845;52.042;6.838;2023-04-15T07:36:01;-18241.44;;;7.93;100.00
24746;BME280;12845;52.042;6.838;2023-04-15T07:38:27;-18241.84;;;7.94;100.00
24746;BME280;12845;52.042;6.838;2023-04-15T07:40:52;-18242.53;;;7.97;100.00
24746;BME280;12845;52.042;6.838;2023-04-15T07:43:18;-18242.81;;;7.98;100.00
24746;BME280;12845;52.042;6.838;2023-04-15T07:45:45;-18245.28;;;8.07;100.00
24746;BME280;12845;52.042;6.838;2023-04-15T07:48:10;-18245.56;;;8.08;100.00
24746;BME280;12845;52.042;6.838;2023-04-15T07:50:36;-18246.94;;;8.13;100.00
24746;BME280;12845;52.042;6.838;2023-04-15T07:53:01;-18244.31;;;8.03;100.00
24746;BME280;12845;52.042;6.838;2023-04-15T07:55:26;-18246.53;;;8.11;100.00
24746;BME280;12845;52.042;6.838;2023-04-15T07:57:52;-18249.84;;;8.24;100.00
24746;BME280;12845;52.042;6.838;2023-04-15T08:00:17;-18249.69;;;8.23;100.00
24746;BME280;12845;52.042;6.838;2023-04-15T08:02:43;-18250.38;;;8.26;100.00
24746;BME280;12845;52.042;6.838;2023-04-15T08:05:09;-18250.53;;;8.26;100.00
24746;BME280;12845;52.042;6.838;2023-04-15T08:07:35;-18252.88;;;8.35;100.00
24746;BME280;12845;52.042;6.838;2023-04-15T08:10:01;-18253.84;;;8.39;100.00
24746;BME280;12845;52.042;6.838;2023-04-15T08:12:27;-18256.31;;;8.48;100.00
24746;BME280;12845;52.042;6.838;2023-04-15T08:14:52;-18258.25;;;8.55;100.00
24746;BME280;12845;52.042;6.838;2023-04-15T08:17:19;-18258.50;;;8.56;100.00
24746;BME280;12845;52.042;6.838;2023-04-15T08:19:44;-18261.81;;;8.68;100.00
24746;BME280;12845;52.042;6.838;2023-04-15T08:22:10;-18262.63;;;8.71;100.00
24746;BME280;12845;52.042;6.838;2023-04-15T08:24:36;-18265.66;;;8.82;100.00
24746;BME280;12845;52.042;6.838;2023-04-15T08:27:01;-18267.47;;;8.89;100.00
24746;BME280;12845;52.042;6.838;2023-04-15T08:29:28;-18269.09;;;8.95;100.00
24746;BME280;12845;52.042;6.838;2023-04-15T08:31:54;-18272.53;;;9.08;100.00
24746;BME280;12845;52.042;6.838;2023-04-15T08:34:19;-18271.44;;;9.04;100.00
24746;BME280;12845;52.042;6.838;2023-04-15T08:36:45;-18271.84;;;9.06;100.00
24746;BME280;12845;52.042;6.838;2023-04-15T08:39:10;-18272.53;;;9.08;100.00
24746;BME280;12845;52.042;6.838;2023-04-15T08:41:46;-18272.81;;;9.09;100.00
24746;BME280;12845;52.042;6.838;2023-04-15T08:44:13;-18273.78;;;9.13;100.00
24746;BME280;12845;52.042;6.838;2023-04-15T08:46:40;-18271.16;;;9.03;100.00
24746;BME280;12845;52.042;6.838;2023-04-15T08:49:09;-18269.81;;;8.98;100.00
24746;BME280;12845;52.042;6.838;2023-04-15T08:51:36;-18269.94;;;8.98;100.00
24746;BME280;12845;52.042;6.838;2023-04-15T08:54:02;-18270.06;;;8.99;100.00
24746;BME280;12845;52.042;6.838;2023-04-15T08:56:30;-18268.97;;;8.95;100.00
24746;BME280;12845;52.042;6.838;2023-04-15T08:58:57;-18270.63;;;9.01;100.00
24746;BME280;12845;52.042;6.838;2023-04-15T09:01:23;-18272.00;;;9.06;100.00
24746;BME280;12845;52.042;6.838;2023-04-15T09:03:48;-18276.94;;;9.24;100.00
24746;BME280;12845;52.042;6.838;2023-04-15T09:06:19;-18277.63;;;9.27;100.00
24746;BME280;12845;52.042;6.838;2023-04-15T09:08:45;-18279.97;;;9.36;100.00
24746;BME280;12845;52.042;6.838;2023-04-15T09:11:10;-18284.66;;;9.53;100.00
24746;BME280;12845;52.042;6.838;2023-04-15T09:13:36;-18287.25;;;9.63;100.00
24746;BME280;12845;52.042;6.838;2023-04-15T09:16:04;-18289.47;;;9.71;100.00
24746;BME280;12845;52.042;6.838;2023-04-15T09:18:31;-18286.84;;;9.61;100.00
24746;BME280;12845;52.042;6.838;2023-04-15T09:21:09;-18288.78;;;9.68;100.00
24746;BME280;12845;52.042;6.838;2023-04-15T09:23:36;-18289.47;;;9.71;100.00
24746;BME280;12845;52.042;6.838;2023-04-15T09:26:02;-18290.00;;;9.73;100.00
24746;BME280;12845;52.042;6.838;2023-04-15T09:28:28;-18289.75;;;9.72;100.00
24746;BME280;12845;52.042;6.838;2023-04-15T09:30:58;-18289.75;;;9.72;100.00
24746;BME280;12845;52.042;6.838;2023-04-15T09:33:24;-18292.06;;;9.81;100.00
24746;BME280;12845;52.042;6.838;2023-04-15T09:35:57;-18293.88;;;9.87;100.00
24746;BME280;12845;52.042;6.838;2023-04-15T09:38:23;-18294.41;;;9.89;100.00
24746;BME280;12845;52.042;6.838;2023-04-15T09:40:48;-18292.63;;;9.83;100.00
24746;BME280;12845;52.042;6.838;2023-04-15T09:43:14;-18290.69;;;9.76;100.00
24746;BME280;12845;52.042;6.838;2023-04-15T09:45:49;-18290.97;;;9.77;100.00
24746;BME280;12845;52.042;6.838;2023-04-15T09:48:20;-18292.63;;;9.83;100.00
24746;BME280;12845;52.042;6.838;2023-04-15T09:50:46;-18293.72;;;9.87;100.00
24746;BME280;12845;52.042;6.838;2023-04-15T09:53:18;-18294.56;;;9.90;100.00
24746;BME280;12845;52.042;6.838;2023-04-15T09:55:45;-18296.34;;;9.97;100.00
24746;BME280;12845;52.042;6.838;2023-04-15T09:58:18;-18296.34;;;9.97;100.00
24746;BME280;12845;52.042;6.838;2023-04-15T10:00:46;-18296.19;;;9.96;100.00
24746;BME280;12845;52.042;6.838;2023-04-15T10:03:12;-18297.56;;;10.01;100.00
24746;BME280;12845;52.042;6.838;2023-04-15T10:05:39;-18300.31;;;10.11;100.00
24746;BME280;12845;52.042;6.838;2023-04-15T10:08:04;-18301.84;;;10.17;100.00
24746;BME280;12845;52.042;6.838;2023-04-15T10:10:30;-18301.41;;;10.15;100.00
24746;BME280;12845;52.042;6.838;2023-04-15T10:12:57;-18300.31;;;10.11;100.00
24746;BME280;12845;52.042;6.838;2023-04-15T10:15:23;-18299.78;;;10.09;100.00
24746;BME280;12845;52.042;6.838;2023-04-15T10:17:49;-18299.63;;;10.09;100.00
24746;BME280;12845;52.042;6.838;2023-04-15T10:20:16;-18302.78;;;10.21;100.00
24746;BME280;12845;52.042;6.838;2023-04-15T10:22:44;-18303.22;;;10.22;100.00
24746;BME280;12845;52.042;6.838;2023-04-15T10:25:09;-18303.91;;;10.25;100.00
24746;BME280;12845;52.042;6.838;2023-04-15T10:27:36;-18303.06;;;10.22;100.00
24746;BME280;12845;52.042;6.838;2023-04-15T10:30:04;-18300.75;;;10.13;100.00
24746;BME280;12845;52.042;6.838;2023-04-15T10:32:30;-18303.22;;;10.22;100.00
24746;BME280;12845;52.042;6.838;2023-04-15T10:34:56;-18301.97;;;10.17;100.00
24746;BME280;12845;52.042;6.838;2023-04-15T10:37:35;-18301.16;;;10.14;100.00
24746;BME280;12845;52.042;6.838;2023-04-15T10:40:25;-18302.94;;;10.21;100.00
24746;BME280;12845;52.042;6.838;2023-04-15T10:42:55;-18302.78;;;10.21;100.00
24746;BME280;12845;52.042;6.838;2023-04-15T10:45:24;-18302.78;;;10.21;100.00
24746;BME280;12845;52.042;6.838;2023-04-15T10:47:53;-18305.00;;;10.29;100.00
24746;BME280;12845;52.042;6.838;2023-04-15T10:50:19;-18306.66;;;10.35;100.00
24746;BME280;12845;52.042;6.838;2023-04-15T10:52:45;-18307.34;;;10.37;100.00
24746;BME280;12845;52.042;6.838;2023-04-15T10:55:18;-18307.19;;;10.37;100.00
24746;BME280;12845;52.042;6.838;2023-04-15T10:57:44;-18308.44;;;10.42;100.00
24746;BME280;12845;52.042;6.838;2023-04-15T11:00:14;-18307.19;;;10.37;100.00
24746;BME280;12845;52.042;6.838;2023-04-15T11:05:10;-18305.56;;;10.31;100.00
24746;BME280;12845;52.042;6.838;2023-04-15T11:07:56;-18305.97;;;10.32;100.00
24746;BME280;12845;52.042;6.838;2023-04-15T11:13:14;-18307.75;;;10.39;100.00
24746;BME280;12845;52.042;6.838;2023-04-15T11:15:41;-18308.44;;;10.42;100.00
24746;BME280;12845;52.042;6.838;2023-04-15T11:18:20;-18306.50;;;10.34;100.00
24746;BME280;12845;52.042;6.838;2023-04-15T11:20:50;-18306.66;;;10.35;100.00
24746;BME280;12845;52.042;6.838;2023-04-15T11:23:19;-18306.78;;;10.35;100.00
24746;BME280;12845;52.042;6.838;2023-04-15T11:25:54;-18303.91;;;10.25;100.00
24746;BME280;12845;52.042;6.838;2023-04-15T11:28:19;-18303.06;;;10.22;100.00
24746;BME280;12845;52.042;6.838;2023-04-15T11:30:44;-18305.56;;;10.31;100.00
24746;BME280;12845;52.042;6.838;2023-04-15T11:33:10;-18306.25;;;10.33;100.00
24746;BME280;12845;52.042;6.838;2023-04-15T11:35:36;-18308.72;;;10.43;100.00
24746;BME280;12845;52.042;6.838;2023-04-15T11:38:08;-18307.34;;;10.37;100.00
24746;BME280;12845;52.042;6.838;2023-04-15T11:40:34;-18305.97;;;10.32;100.00
24746;BME280;12845;52.042;6.838;2023-04-15T11:43:08;-18306.94;;;10.36;100.00
24746;BME280;12845;52.042;6.838;2023-04-15T11:45:38;-18308.03;;;10.40;100.00
24746;BME280;12845;52.042;6.838;2023-04-15T11:48:12;-18308.56;;;10.42;100.00
24746;BME280;12845;52.042;6.838;2023-04-15T11:50:38;-18308.31;;;10.41;100.00
24746;BME280;12845;52.042;6.838;2023-04-15T11:53:07;-18305.41;;;10.30;100.00
24746;BME280;12845;52.042;6.838;2023-04-15T11:55:45;-18303.75;;;10.24;100.00
24746;BME280;12845;52.042;6.838;2023-04-15T11:58:18;-18304.16;;;10.26;100.00
24746;BME280;12845;52.042;6.838;2023-04-15T12:00:51;-18305.41;;;10.30;100.00
24746;BME280;12845;52.042;6.838;2023-04-15T12:13:56;-18309.00;;;10.44;100.00
24746;BME280;12845;52.042;6.838;2023-04-15T12:16:22;-18305.69;;;10.31;100.00
24746;BME280;12845;52.042;6.838;2023-04-15T12:18:53;-18307.06;;;10.36;100.00
24746;BME280;12845;52.042;6.838;2023-04-15T12:21:22;-18308.16;;;10.41;100.00
24746;BME280;12845;52.042;6.838;2023-04-15T12:23:53;-18307.47;;;10.38;100.00
24746;BME280;12845;52.042;6.838;2023-04-15T12:26:26;-18308.84;;;10.43;100.00
24746;BME280;12845;52.042;6.838;2023-04-15T12:29:03;-18308.16;;;10.41;100.00
24746;BME280;12845;52.042;6.838;2023-04-15T12:31:29;-18309.53;;;10.46;100.00
24746;BME280;12845;52.042;6.838;2023-04-15T12:33:57;-18309.69;;;10.46;100.00
24746;BME280;12845;52.042;6.838;2023-04-15T12:36:23;-18310.22;;;10.48;100.00
24746;BME280;12845;52.042;6.838;2023-04-15T12:38:48;-18308.84;;;10.43;100.00
24746;BME280;12845;52.042;6.838;2023-04-15T12:41:14;-18308.31;;;10.41;100.00
24746;BME280;12845;52.042;6.838;2023-04-15T12:43:39;-18308.16;;;10.41;100.00
24746;BME280;12845;52.042;6.838;2023-04-15T12:46:05;-18311.31;;;10.52;100.00
24746;BME280;12845;52.042;6.838;2023-04-15T12:48:33;-18307.88;;;10.39;100.00
24746;BME280;12845;52.042;6.838;2023-04-15T12:50:58;-18309.00;;;10.44;100.00
24746;BME280;12845;52.042;6.838;2023-04-15T12:53:23;-18306.50;;;10.34;100.00
24746;BME280;12845;52.042;6.838;2023-04-15T12:55:49;-18306.38;;;10.34;100.00
24746;BME280;12845;52.042;6.838;2023-04-15T12:58:14;-18307.34;;;10.37;100.00
24746;BME280;12845;52.042;6.838;2023-04-15T13:00:39;-18305.81;;;10.32;100.00